createdAt,value
2022-12-08T00:01:32.663Z,15.00
2022-12-08T00:06:50.778Z,15.00
2022-12-08T00:09:38.215Z,18.00
2022-12-08T00:12:13.889Z,15.50
2022-12-08T00:17:13.006Z,11.00
2022-12-08T00:22:10.831Z,16.00
2022-12-08T00:27:09.818Z,15.00
2022-12-08T00:29:38.018Z,13.50
2022-12-08T00:32:07.115Z,13.00
2022-12-08T00:37:03.155Z,12.00
2022-12-08T00:39:31.947Z,14.00
2022-12-08T00:42:12.325Z,16.00
2022-12-08T00:44:44.739Z,15.50
2022-12-08T00:47:14.327Z,16.00
2022-12-08T00:52:10.175Z,16.50
2022-12-08T00:54:38.315Z,16.00
2022-12-08T00:57:06.401Z,16.00
2022-12-08T00:59:34.288Z,18.00
2022-12-08T01:02:03.390Z,14.00
2022-12-08T01:04:31.424Z,11.00
2022-12-08T01:06:59.547Z,18.00
2022-12-08T01:09:27.588Z,16.00
2022-12-08T01:11:56.017Z,15.00
2022-12-08T01:14:24.045Z,12.00
2022-12-08T01:16:52.141Z,13.00
2022-12-08T01:19:20.136Z,16.00
2022-12-08T01:24:20.092Z,17.00
2022-12-08T01:26:50.303Z,17.00
2022-12-08T01:29:18.352Z,16.50
2022-12-08T01:31:46.520Z,16.00
2022-12-08T01:36:44.356Z,15.00
2022-12-08T01:39:18.255Z,18.00
2022-12-08T01:41:47.899Z,14.00
2022-12-08T01:44:15.749Z,11.00
2022-12-08T01:46:48.594Z,11.00
2022-12-08T01:49:22.293Z,15.00
2022-12-08T01:52:05.525Z,13.00
2022-12-08T01:54:39.115Z,12.00
2022-12-08T01:57:21.157Z,17.00
2022-12-08T01:59:59.794Z,13.00
2022-12-08T02:02:34.445Z,12.50
2022-12-08T02:05:03.600Z,13.00
2022-12-08T02:07:32.082Z,11.00
2022-12-08T02:10:01.225Z,14.50
2022-12-08T02:12:29.615Z,8.50
2022-12-08T02:15:01.856Z,14.00
2022-12-08T02:17:44.269Z,13.00
2022-12-08T02:20:44.881Z,13.00
2022-12-08T02:23:35.682Z,12.00
2022-12-08T02:26:37.334Z,13.00
2022-12-08T02:29:28.698Z,12.00
2022-12-08T02:32:42.401Z,14.50
2022-12-08T02:35:22.459Z,12.00
2022-12-08T02:40:53.187Z,11.00
2022-12-08T02:46:11.304Z,12.50
2022-12-08T02:48:40.214Z,12.00
2022-12-08T02:51:08.934Z,11.00
2022-12-08T02:53:37.098Z,13.00
2022-12-08T02:56:46.842Z,12.00
2022-12-08T03:00:00.252Z,11.00
2022-12-08T03:02:56.534Z,11.00
2022-12-08T03:06:02.443Z,11.50
2022-12-08T03:11:20.452Z,14.00
2022-12-08T03:13:53.142Z,18.00
2022-12-08T03:19:00.454Z,13.00
2022-12-08T03:21:29.809Z,13.00
2022-12-08T03:23:57.900Z,10.50
2022-12-08T03:26:34.400Z,11.00
2022-12-08T03:29:02.934Z,11.00
2022-12-08T03:31:37.612Z,9.00
2022-12-08T03:34:06.589Z,11.50
2022-12-08T03:36:34.629Z,9.00
2022-12-08T03:39:02.800Z,11.00
2022-12-08T03:41:30.792Z,12.00
2022-12-08T03:43:59.691Z,11.00
2022-12-08T03:48:57.396Z,11.00
2022-12-08T03:51:27.346Z,9.00
2022-12-08T03:56:33.222Z,9.00
2022-12-08T03:59:01.584Z,9.00
2022-12-08T04:01:29.609Z,10.00
2022-12-08T04:03:57.892Z,12.00
2022-12-08T04:06:26.165Z,11.00
2022-12-08T04:08:54.261Z,10.00
2022-12-08T04:11:22.571Z,8.00
2022-12-08T04:13:50.541Z,9.00
2022-12-08T04:16:22.136Z,12.00
2022-12-08T04:18:50.253Z,9.00
2022-12-08T04:21:18.293Z,9.00
2022-12-08T04:23:46.716Z,12.00
2022-12-08T04:26:14.969Z,11.50
2022-12-08T04:28:43.682Z,12.00
2022-12-08T04:31:11.753Z,9.00
2022-12-08T04:33:39.828Z,10.00
2022-12-08T04:36:08.897Z,11.50
2022-12-08T04:38:37.574Z,13.00
2022-12-08T04:41:06.168Z,8.00
2022-12-08T04:43:34.116Z,13.00
2022-12-08T04:46:02.132Z,12.50
2022-12-08T04:48:30.069Z,1.00
2022-12-08T04:50:58.072Z,12.00
2022-12-08T04:53:27.236Z,13.00
2022-12-08T04:55:55.623Z,15.00
2022-12-08T04:58:23.680Z,11.50
2022-12-08T05:00:51.975Z,12.00
2022-12-08T05:03:25.283Z,9.00
2022-12-08T05:05:56.425Z,11.50
2022-12-08T05:08:24.806Z,11.50
2022-12-08T05:10:53.114Z,16.00
2022-12-08T05:13:21.089Z,13.00
2022-12-08T05:15:49.122Z,14.00
2022-12-08T05:18:17.330Z,12.00
2022-12-08T05:20:45.363Z,11.00
2022-12-08T05:23:13.290Z,13.00
2022-12-08T05:25:41.283Z,12.00
2022-12-08T05:28:39.645Z,14.50
2022-12-08T05:30:57.180Z,16.00
2022-12-08T05:33:25.212Z,16.00
2022-12-08T05:35:53.207Z,14.00
2022-12-08T05:38:21.243Z,15.00
2022-12-08T05:40:49.207Z,10.00
2022-12-08T05:43:17.273Z,11.00
2022-12-08T05:45:45.302Z,12.00
2022-12-08T05:48:13.557Z,13.00
2022-12-08T05:50:47.031Z,13.00
2022-12-08T05:53:16.305Z,12.00
2022-12-08T05:55:44.526Z,11.00
2022-12-08T05:58:14.980Z,11.00
2022-12-08T06:00:43.712Z,19.00
2022-12-08T06:03:13.062Z,12.00
2022-12-08T06:05:42.956Z,9.00
2022-12-08T06:10:43.634Z,13.00
2022-12-08T06:13:12.626Z,15.00
2022-12-08T06:15:41.209Z,12.00
2022-12-08T06:18:10.995Z,13.00
2022-12-08T06:20:39.055Z,14.00
2022-12-08T06:25:35.012Z,12.00
2022-12-08T06:28:05.149Z,8.50
2022-12-08T06:30:33.321Z,12.50
2022-12-08T06:33:01.241Z,11.00
2022-12-08T06:35:29.398Z,13.00
2022-12-08T06:37:57.572Z,11.50
2022-12-08T06:40:25.647Z,11.50
2022-12-08T06:42:53.831Z,12.00
2022-12-08T06:47:49.880Z,13.00
2022-12-08T06:58:19.863Z,15.50
2022-12-08T07:00:47.922Z,10.00
2022-12-08T07:03:15.991Z,16.50
2022-12-08T07:05:44.025Z,18.00
2022-12-08T07:08:12.130Z,15.50
2022-12-08T07:10:40.246Z,12.00
2022-12-08T07:15:36.255Z,13.50
2022-12-08T07:18:04.200Z,13.00
2022-12-08T07:20:32.371Z,15.00
2022-12-08T07:23:00.405Z,15.00
2022-12-08T07:25:28.574Z,13.00
2022-12-08T07:27:56.648Z,14.00
2022-12-08T07:30:24.572Z,13.00
2022-12-08T07:32:52.736Z,12.00
2022-12-08T07:35:21.573Z,14.00
2022-12-08T07:37:50.300Z,12.00
2022-12-08T07:40:18.336Z,15.00
2022-12-08T07:45:14.313Z,13.00
2022-12-08T07:47:42.182Z,15.50
2022-12-08T07:50:10.475Z,12.00
2022-12-08T07:52:38.505Z,14.00
2022-12-08T07:55:06.912Z,14.00
2022-12-08T07:57:34.857Z,14.00
2022-12-08T08:00:05.010Z,15.00
2022-12-08T08:02:40.338Z,14.00
2022-12-08T08:05:09.503Z,14.00
2022-12-08T08:07:38.299Z,15.00
2022-12-08T08:10:07.509Z,16.00
2022-12-08T08:12:36.832Z,12.50
2022-12-08T08:17:38.105Z,12.00
2022-12-08T08:25:04.210Z,10.00
2022-12-08T08:27:32.112Z,11.00
2022-12-08T08:30:00.165Z,9.00
2022-12-08T08:32:28.253Z,9.50
2022-12-08T08:34:56.248Z,13.00
2022-12-08T08:37:24.224Z,13.50
2022-12-08T08:39:52.325Z,16.00
2022-12-08T08:44:51.199Z,13.50
2022-12-08T08:47:19.148Z,12.00
2022-12-08T08:49:47.226Z,16.50
2022-12-08T08:52:15.150Z,15.00
2022-12-08T08:54:43.007Z,13.00
2022-12-08T08:57:12.368Z,9.00
2022-12-08T08:59:40.316Z,12.00
2022-12-08T09:02:17.444Z,10.00
2022-12-08T09:04:45.899Z,15.00
2022-12-08T09:07:14.835Z,13.00
2022-12-08T09:09:42.783Z,12.00
2022-12-08T09:12:11.131Z,14.00
2022-12-08T09:14:39.243Z,14.50
2022-12-08T09:19:35.927Z,15.00
2022-12-08T09:24:32.333Z,17.00
2022-12-08T09:27:00.280Z,15.00
2022-12-08T09:29:34.046Z,14.50
2022-12-08T09:32:04.236Z,16.00
2022-12-08T09:34:32.243Z,14.00
2022-12-08T09:37:00.682Z,14.00
2022-12-08T09:42:02.438Z,12.00
2022-12-08T09:45:04.234Z,14.50
2022-12-08T09:47:43.737Z,9.00
2022-12-08T09:50:35.075Z,13.00
2022-12-08T09:53:14.883Z,15.00
2022-12-08T09:56:13.789Z,15.50
2022-12-08T09:59:00.499Z,14.00
2022-12-08T10:06:47.554Z,12.00
2022-12-08T10:09:53.063Z,12.00
2022-12-08T10:12:44.565Z,14.50
2022-12-08T10:15:44.152Z,12.00
2022-12-08T10:18:25.193Z,12.00
2022-12-08T10:20:58.007Z,11.50
2022-12-08T10:23:35.213Z,11.50
2022-12-08T10:26:06.404Z,13.00
2022-12-08T10:28:40.028Z,7.00
2022-12-08T10:31:21.271Z,11.00
2022-12-08T10:33:58.693Z,14.00
2022-12-08T10:36:47.713Z,11.00
2022-12-08T10:39:35.741Z,13.00
2022-12-08T10:42:16.723Z,10.00
2022-12-08T10:45:10.764Z,13.50
2022-12-08T10:47:44.823Z,10.00
2022-12-08T10:50:22.858Z,12.00
2022-12-08T10:53:02.196Z,10.00
2022-12-08T10:58:23.583Z,12.50
2022-12-08T11:00:55.902Z,9.00
2022-12-08T11:03:29.424Z,11.00
2022-12-08T11:06:05.382Z,12.00
2022-12-08T11:08:47.969Z,12.50
2022-12-08T11:11:17.051Z,11.00
2022-12-08T11:13:47.652Z,11.00
2022-12-08T11:16:18.179Z,13.50
2022-12-08T11:18:55.300Z,14.00
2022-12-08T11:21:35.451Z,13.00
2022-12-08T11:26:51.396Z,12.00
2022-12-08T11:29:19.936Z,10.00
2022-12-08T11:31:53.556Z,9.00
2022-12-08T11:34:37.378Z,12.00
2022-12-08T11:37:11.183Z,10.00
2022-12-08T11:39:48.602Z,13.00
2022-12-08T11:47:39.296Z,11.50
2022-12-08T11:50:29.821Z,10.00
2022-12-08T11:52:59.986Z,11.00
2022-12-08T11:55:37.349Z,12.00
2022-12-08T11:58:18.746Z,8.50
2022-12-08T12:00:47.138Z,10.00
2022-12-08T12:03:21.304Z,9.00
2022-12-08T12:06:13.569Z,12.00
2022-12-08T12:09:37.734Z,8.00
2022-12-08T12:15:19.178Z,7.00
2022-12-08T12:17:47.346Z,9.00
2022-12-08T12:20:30.882Z,11.00
2022-12-08T12:25:36.984Z,9.00
2022-12-08T12:28:09.513Z,9.50
2022-12-08T12:30:52.764Z,9.00
2022-12-08T12:33:22.647Z,6.00
2022-12-08T12:35:51.345Z,9.00
2022-12-08T12:39:08.652Z,9.00
2022-12-08T12:41:53.012Z,6.00
2022-12-08T12:44:24.094Z,8.00
2022-12-08T12:46:53.541Z,10.00
2022-12-08T12:54:58.786Z,9.50
2022-12-08T12:57:38.083Z,9.00
2022-12-08T13:00:19.767Z,8.00
2022-12-08T13:02:49.764Z,10.00
2022-12-08T13:05:49.620Z,10.00
2022-12-08T13:11:02.356Z,11.00
2022-12-08T13:13:30.861Z,9.50
2022-12-08T13:16:19.561Z,12.00
2022-12-08T13:18:56.482Z,12.00
2022-12-08T13:21:31.817Z,8.00
2022-12-08T13:24:18.021Z,9.50
2022-12-08T13:26:48.938Z,12.00
2022-12-08T13:29:18.814Z,12.00
2022-12-08T13:31:51.409Z,15.50
2022-12-08T13:34:34.326Z,20.50
2022-12-08T13:37:11.633Z,13.50
2022-12-08T13:39:41.775Z,19.00
2022-12-08T13:42:12.236Z,12.00
2022-12-08T13:45:59.165Z,17.00
2022-12-08T13:56:16.679Z,19.00
2022-12-08T13:57:33.065Z,21.00
2022-12-08T14:00:07.491Z,24.00
2022-12-08T14:02:47.750Z,17.50
2022-12-08T14:05:20.606Z,19.00
2022-12-08T14:07:56.614Z,18.00
2022-12-08T14:10:32.245Z,17.00
2022-12-08T14:13:03.989Z,21.00
2022-12-08T14:15:38.398Z,20.00
2022-12-08T14:18:31.595Z,19.00
2022-12-08T14:21:20.871Z,16.50
2022-12-08T14:23:50.024Z,17.00
2022-12-08T14:26:18.094Z,20.00
2022-12-08T14:28:51.481Z,30.00
2022-12-08T14:31:20.517Z,21.00
2022-12-08T14:33:51.866Z,25.00
2022-12-08T14:36:24.949Z,25.00
2022-12-08T14:41:31.944Z,22.00
2022-12-08T14:44:03.357Z,19.50
2022-12-08T14:46:31.502Z,19.00
2022-12-08T14:48:59.831Z,22.00
2022-12-08T14:51:31.639Z,25.00
2022-12-08T14:53:59.855Z,27.00
2022-12-08T14:56:42.347Z,25.00
2022-12-08T14:59:30.614Z,26.50
2022-12-08T15:02:27.732Z,25.00
2022-12-08T15:10:31.197Z,26.00
2022-12-08T15:13:10.420Z,28.00
2022-12-08T15:18:41.024Z,26.50
2022-12-08T15:21:13.272Z,27.00
2022-12-08T15:23:50.072Z,29.00
2022-12-08T15:26:24.027Z,31.00
2022-12-08T15:28:52.665Z,30.00
2022-12-08T15:31:21.079Z,31.50
2022-12-08T15:33:49.054Z,35.00
2022-12-08T15:36:16.974Z,31.50
2022-12-08T15:38:45.082Z,30.00
2022-12-08T15:46:12.147Z,27.00
2022-12-08T15:48:40.839Z,32.00
2022-12-08T15:51:08.890Z,32.50
2022-12-08T15:53:36.909Z,33.00
2022-12-08T15:58:57.362Z,29.00
2022-12-08T16:01:26.901Z,27.50
2022-12-08T16:09:40.377Z,28.67
2022-12-08T16:18:17.005Z,26.00
2022-12-08T16:23:47.989Z,30.00
2022-12-08T16:27:06.851Z,27.00
2022-12-08T16:29:19.056Z,27.00
2022-12-08T16:31:47.347Z,27.00
2022-12-08T16:34:15.773Z,26.00
2022-12-08T16:36:43.764Z,27.00
2022-12-08T16:39:13.819Z,29.00
2022-12-08T16:42:00.655Z,23.50
2022-12-08T16:44:28.667Z,24.00
2022-12-08T16:46:56.754Z,27.00
2022-12-08T16:49:25.057Z,26.50
2022-12-08T16:51:53.166Z,23.50
2022-12-08T16:56:48.901Z,30.50
2022-12-08T16:59:16.764Z,34.00
2022-12-08T17:01:44.817Z,33.00
2022-12-08T17:07:00.795Z,37.00
2022-12-08T17:09:31.028Z,31.50
2022-12-08T17:12:03.675Z,30.00
2022-12-08T17:14:34.751Z,27.50
2022-12-08T17:17:03.068Z,32.00
2022-12-08T17:19:31.057Z,32.00
2022-12-08T17:24:29.180Z,28.00
2022-12-08T17:26:58.986Z,30.00
2022-12-08T17:29:26.884Z,27.50
2022-12-08T17:31:54.874Z,29.00
2022-12-08T17:34:23.209Z,31.00
2022-12-08T17:36:51.908Z,29.00
2022-12-08T17:39:19.831Z,27.00
2022-12-08T17:41:47.945Z,31.00
2022-12-08T17:46:52.091Z,28.00
2022-12-08T17:51:53.201Z,30.00
2022-12-08T17:54:21.643Z,30.50
2022-12-08T17:56:49.737Z,31.00
2022-12-08T17:59:17.978Z,28.00
2022-12-08T18:04:13.895Z,32.00
2022-12-08T18:06:42.287Z,31.00
2022-12-08T18:09:10.551Z,33.00
2022-12-08T18:11:38.909Z,32.00
2022-12-08T18:16:44.105Z,34.00
2022-12-08T18:19:13.844Z,35.00
2022-12-08T18:21:42.530Z,35.00
2022-12-08T18:24:19.522Z,38.00
2022-12-08T18:26:48.208Z,18.00
2022-12-08T18:31:43.949Z,34.00
2022-12-08T18:39:10.978Z,34.00
2022-12-08T18:41:40.252Z,28.00
2022-12-08T18:44:08.071Z,28.50
2022-12-08T18:46:36.175Z,31.00
2022-12-08T18:49:09.211Z,32.00
2022-12-08T18:54:05.352Z,38.00
2022-12-08T18:56:35.141Z,37.00
2022-12-08T18:59:06.694Z,32.00
2022-12-08T19:01:37.782Z,35.00
2022-12-08T19:09:26.992Z,42.00
2022-12-08T19:11:56.869Z,44.00
2022-12-08T19:14:28.304Z,41.00
2022-12-08T19:19:26.845Z,33.00
2022-12-08T19:21:55.043Z,36.00
2022-12-08T19:24:24.213Z,28.00
2022-12-08T19:26:52.441Z,34.00
2022-12-08T19:29:20.583Z,26.50
2022-12-08T19:31:48.761Z,31.50
2022-12-08T19:34:19.648Z,30.00
2022-12-08T19:36:47.966Z,30.00
2022-12-08T19:39:40.930Z,29.00
2022-12-08T19:42:35.602Z,31.00
2022-12-08T19:45:16.724Z,28.00
2022-12-08T19:47:45.001Z,29.50
2022-12-08T19:57:58.489Z,36.00
2022-12-08T20:02:54.507Z,40.00
2022-12-08T20:07:52.369Z,42.00
2022-12-08T20:12:50.482Z,39.00
2022-12-08T20:15:18.544Z,31.50
2022-12-08T20:17:46.570Z,37.00
2022-12-08T20:20:15.294Z,39.00
2022-12-08T20:22:45.366Z,39.00
2022-12-08T20:25:13.695Z,41.00
2022-12-08T20:27:41.778Z,41.00
2022-12-08T20:32:45.769Z,38.00
2022-12-08T20:35:15.396Z,39.00
2022-12-08T20:37:43.400Z,38.50
2022-12-08T20:40:11.793Z,30.50
2022-12-08T20:42:39.730Z,31.00
2022-12-08T20:45:09.692Z,30.00
2022-12-08T20:47:38.533Z,28.00
2022-12-08T20:50:07.797Z,27.00
2022-12-08T20:52:38.013Z,26.00
2022-12-08T20:55:07.884Z,26.00
2022-12-08T20:57:35.869Z,22.50
2022-12-08T21:00:06.184Z,26.00
2022-12-08T21:02:34.657Z,31.00
2022-12-08T21:12:28.672Z,28.00
2022-12-08T21:14:56.824Z,32.00
2022-12-08T21:17:25.427Z,31.00
2022-12-08T21:22:22.037Z,30.00
2022-12-08T21:24:50.151Z,25.00
2022-12-08T21:29:46.113Z,28.00
2022-12-08T21:32:15.375Z,25.00
2022-12-08T21:37:12.350Z,28.50
2022-12-08T21:39:40.415Z,27.00
2022-12-08T21:42:33.937Z,29.00
2022-12-08T21:47:30.657Z,30.00
2022-12-08T21:49:58.794Z,30.50
2022-12-08T21:52:26.934Z,31.00
2022-12-08T21:54:54.904Z,24.00
2022-12-08T21:57:23.082Z,28.50
2022-12-08T21:59:51.206Z,30.00
2022-12-08T22:02:22.348Z,32.00
2022-12-08T22:04:52.833Z,30.00
2022-12-08T22:07:21.646Z,32.00
2022-12-08T22:09:49.937Z,20.50
2022-12-08T22:12:18.224Z,29.00
2022-12-08T22:14:46.316Z,28.00
2022-12-08T22:17:14.377Z,28.00
2022-12-08T22:22:10.639Z,25.00
2022-12-08T22:24:38.661Z,21.00
2022-12-08T22:27:06.694Z,26.00
2022-12-08T22:29:34.871Z,20.00
2022-12-08T22:32:03.036Z,28.00
2022-12-08T22:34:31.405Z,23.00
2022-12-08T22:36:59.490Z,26.00
2022-12-08T22:39:27.677Z,27.00
2022-12-08T22:41:55.625Z,23.00
2022-12-08T22:44:23.625Z,23.00
2022-12-08T22:49:19.933Z,26.00
2022-12-08T22:51:47.908Z,23.00
2022-12-08T22:54:15.786Z,27.00
2022-12-08T22:56:43.953Z,26.50
2022-12-08T22:59:12.219Z,21.50
2022-12-08T23:01:40.174Z,27.00
2022-12-08T23:04:15.805Z,20.00
2022-12-08T23:06:45.732Z,25.00
2022-12-08T23:09:13.949Z,24.00
2022-12-08T23:11:42.284Z,26.00
2022-12-08T23:16:38.516Z,23.00
2022-12-08T23:19:07.207Z,25.00
2022-12-08T23:21:35.182Z,27.00
2022-12-08T23:24:03.259Z,23.00
2022-12-08T23:26:33.252Z,23.00
2022-12-08T23:31:29.401Z,19.00
2022-12-08T23:33:57.489Z,21.00
2022-12-08T23:36:28.736Z,26.00
2022-12-08T23:43:52.525Z,23.00
2022-12-08T23:48:51.309Z,27.00
2022-12-08T23:51:20.039Z,27.00
2022-12-08T23:53:48.478Z,26.00
2022-12-08T23:56:17.957Z,24.50
2022-12-08T23:58:46.507Z,27.00
